createdAt,value
2018-11-10T00:00:50.763Z,9.12
2018-11-10T00:03:20.271Z,9.09
2018-11-10T00:05:49.749Z,9.08
2018-11-10T00:08:19.465Z,9.02
2018-11-10T00:10:48.966Z,9.04
2018-11-10T00:13:18.496Z,9.02
2018-11-10T00:15:47.986Z,8.93
2018-11-10T00:18:17.539Z,8.83
2018-11-10T00:20:47.001Z,8.84
2018-11-10T00:23:16.662Z,8.98
2018-11-10T00:25:46.248Z,8.86
2018-11-10T00:28:15.772Z,8.83
2018-11-10T00:30:45.316Z,8.84
2018-11-10T00:33:14.834Z,8.81
2018-11-10T00:35:44.335Z,8.88
2018-11-10T00:38:13.823Z,8.82
2018-11-10T00:40:43.389Z,8.85
2018-11-10T00:43:12.930Z,8.91
2018-11-10T00:45:42.460Z,8.83
2018-11-10T00:48:12.200Z,8.79
2018-11-10T00:50:41.773Z,8.87
2018-11-10T00:53:11.363Z,8.77
2018-11-10T00:55:40.896Z,8.81
2018-11-10T00:58:10.469Z,8.79
2018-11-10T01:00:40.057Z,8.86
2018-11-10T01:03:09.605Z,8.88
2018-11-10T01:05:39.331Z,8.86
2018-11-10T01:08:08.848Z,8.83
2018-11-10T01:10:38.273Z,8.96
2018-11-10T01:13:07.996Z,8.85
2018-11-10T01:15:37.568Z,8.93
2018-11-10T01:18:07.252Z,8.87
2018-11-10T01:20:36.725Z,8.82
2018-11-10T01:23:06.501Z,8.92
2018-11-10T01:25:36.065Z,8.80
2018-11-10T01:28:05.630Z,8.70
2018-11-10T01:30:35.250Z,8.73
2018-11-10T01:33:04.785Z,8.72
2018-11-10T01:35:34.239Z,8.68
2018-11-10T01:38:03.853Z,8.65
2018-11-10T01:40:33.333Z,8.73
2018-11-10T01:43:02.795Z,8.68
2018-11-10T01:45:32.304Z,8.76
2018-11-10T01:48:01.808Z,8.76
2018-11-10T01:50:31.304Z,8.80
2018-11-10T01:53:00.881Z,8.75
2018-11-10T01:55:30.397Z,8.73
2018-11-10T01:57:59.938Z,8.68
2018-11-10T02:00:29.498Z,8.68
2018-11-10T02:02:59.077Z,8.65
2018-11-10T02:05:28.601Z,8.73
2018-11-10T02:07:58.192Z,8.71
2018-11-10T02:10:27.664Z,8.68
2018-11-10T02:12:57.199Z,8.63
2018-11-10T02:15:26.812Z,8.64
2018-11-10T02:17:57.117Z,8.65
2018-11-10T02:20:26.779Z,8.67
2018-11-10T02:22:56.319Z,8.65
2018-11-10T02:25:25.899Z,8.59
2018-11-10T02:27:56.104Z,8.54
2018-11-10T02:30:25.636Z,8.52
2018-11-10T02:32:55.083Z,8.46
2018-11-10T02:35:24.543Z,8.43
2018-11-10T02:37:54.118Z,8.43
2018-11-10T02:40:23.620Z,8.30
2018-11-10T02:42:53.256Z,8.41
2018-11-10T02:45:22.723Z,8.31
2018-11-10T02:47:52.163Z,8.22
2018-11-10T02:50:21.760Z,8.23
2018-11-10T02:52:51.302Z,8.23
2018-11-10T02:55:20.720Z,8.18
2018-11-10T02:57:50.322Z,8.16
2018-11-10T03:00:19.892Z,8.06
2018-11-10T03:02:49.384Z,8.02
2018-11-10T03:05:19.115Z,8.05
2018-11-10T03:07:48.607Z,8.10
2018-11-10T03:10:18.145Z,8.10
2018-11-10T03:12:47.664Z,8.12
2018-11-10T03:15:17.216Z,8.13
2018-11-10T03:17:46.699Z,8.16
2018-11-10T03:20:16.453Z,8.15
2018-11-10T03:22:46.282Z,8.19
2018-11-10T03:25:15.821Z,8.24
2018-11-10T03:27:45.316Z,8.19
2018-11-10T03:30:14.903Z,8.22
2018-11-10T03:32:44.382Z,8.16
2018-11-10T03:35:13.936Z,8.10
2018-11-10T03:37:43.424Z,8.06
2018-11-10T03:40:13.417Z,8.03
2018-11-10T03:42:42.926Z,8.08
2018-11-10T03:45:13.244Z,8.26
2018-11-10T03:47:42.775Z,8.30
2018-11-10T03:50:13.414Z,8.29
2018-11-10T03:52:43.159Z,8.37
2018-11-10T03:55:12.742Z,8.38
2018-11-10T03:57:42.330Z,8.35
2018-11-10T04:00:14.052Z,8.44
2018-11-10T04:02:44.727Z,8.51
2018-11-10T04:05:14.781Z,8.45
2018-11-10T04:07:45.108Z,8.37
2018-11-10T04:10:15.371Z,8.46
2018-11-10T04:12:44.826Z,8.41
2018-11-10T04:15:14.300Z,8.43
2018-11-10T04:17:43.830Z,8.49
2018-11-10T04:20:13.364Z,8.55
2018-11-10T04:22:42.881Z,8.53
2018-11-10T04:25:12.527Z,8.58
2018-11-10T04:27:42.076Z,8.53
2018-11-10T04:30:12.149Z,8.56
2018-11-10T04:32:41.638Z,8.62
2018-11-10T04:35:11.164Z,8.67
2018-11-10T04:37:40.707Z,8.65
2018-11-10T04:40:10.971Z,8.62
2018-11-10T04:42:40.979Z,8.67
2018-11-10T04:45:11.727Z,8.76
2018-11-10T04:47:41.331Z,8.76
2018-11-10T04:50:11.971Z,8.76
2018-11-10T04:52:42.156Z,8.71
2018-11-10T04:55:12.642Z,8.69
2018-11-10T04:57:42.447Z,8.69
2018-11-10T05:00:14.218Z,8.73
2018-11-10T05:02:44.774Z,8.72
2018-11-10T05:05:14.308Z,8.79
2018-11-10T05:07:43.849Z,8.83
2018-11-10T05:10:13.412Z,8.77
2018-11-10T05:12:42.885Z,8.83
2018-11-10T05:15:13.412Z,8.86
2018-11-10T05:17:43.057Z,8.87
2018-11-10T05:20:12.589Z,8.79
2018-11-10T05:22:42.318Z,8.84
2018-11-10T05:25:11.976Z,8.84
2018-11-10T05:27:41.466Z,8.84
2018-11-10T05:30:11.553Z,8.82
2018-11-10T05:32:41.004Z,8.92
2018-11-10T05:35:10.538Z,8.91
2018-11-10T05:37:40.042Z,8.87
2018-11-10T05:40:10.804Z,8.81
2018-11-10T05:42:40.607Z,8.86
2018-11-10T05:45:10.472Z,8.93
2018-11-10T05:47:40.099Z,8.89
2018-11-10T05:50:10.041Z,8.91
2018-11-10T05:52:39.524Z,8.89
2018-11-10T05:55:09.180Z,8.90
2018-11-10T05:57:39.497Z,8.94
2018-11-10T06:00:13.515Z,8.79
2018-11-10T06:02:43.411Z,8.86
2018-11-10T06:05:13.333Z,8.93
2018-11-10T06:07:42.792Z,8.94
2018-11-10T06:10:12.935Z,8.84
2018-11-10T06:12:42.796Z,8.87
2018-11-10T06:15:12.306Z,8.84
2018-11-10T06:17:41.808Z,8.89
2018-11-10T06:20:12.897Z,8.89
2018-11-10T06:22:42.444Z,8.93
2018-11-10T06:25:12.547Z,8.86
2018-11-10T06:27:42.056Z,8.89
2018-11-10T06:30:12.450Z,8.92
2018-11-10T06:32:42.037Z,8.89
2018-11-10T06:35:11.814Z,8.89
2018-11-10T06:37:42.383Z,9.02
2018-11-10T06:40:13.511Z,9.01
2018-11-10T06:42:43.700Z,8.93
2018-11-10T06:45:13.153Z,8.90
2018-11-10T06:47:42.588Z,8.90
2018-11-10T06:50:12.561Z,8.88
2018-11-10T06:52:42.118Z,8.81
2018-11-10T06:55:12.021Z,8.82
2018-11-10T06:57:41.619Z,8.96
2018-11-10T07:00:15.217Z,9.00
2018-11-10T07:02:44.980Z,8.89
2018-11-10T07:05:14.540Z,8.80
2018-11-10T07:07:44.032Z,8.80
2018-11-10T07:10:13.527Z,8.80
2018-11-10T07:12:42.987Z,8.71
2018-11-10T07:15:12.492Z,8.81
2018-11-10T07:20:21.662Z,8.80
2018-11-10T07:22:51.249Z,8.75
2018-11-10T07:25:20.780Z,8.76
2018-11-10T07:27:50.322Z,8.84
2018-11-10T07:30:19.925Z,8.96
2018-11-10T07:32:49.395Z,8.94
2018-11-10T07:35:18.834Z,9.01
2018-11-10T07:37:48.251Z,9.02
2018-11-10T07:40:17.849Z,9.12
2018-11-10T07:42:47.351Z,9.12
2018-11-10T07:45:17.179Z,9.18
2018-11-10T07:47:46.939Z,9.10
2018-11-10T07:50:16.498Z,9.20
2018-11-10T07:52:46.119Z,9.27
2018-11-10T07:55:16.268Z,9.37
2018-11-10T07:57:45.706Z,9.41
2018-11-10T08:00:16.606Z,9.39
2018-11-10T08:02:46.061Z,9.39
2018-11-10T08:05:16.208Z,9.33
2018-11-10T08:07:45.795Z,9.43
2018-11-10T08:10:15.901Z,9.34
2018-11-10T08:12:45.405Z,9.37
2018-11-10T08:15:16.167Z,9.45
2018-11-10T08:17:45.703Z,9.46
2018-11-10T08:20:15.369Z,9.47
2018-11-10T08:22:44.941Z,9.51
2018-11-10T08:25:15.237Z,9.57
2018-11-10T08:27:44.778Z,9.60
2018-11-10T08:30:15.107Z,9.65
2018-11-10T08:32:44.767Z,9.69
2018-11-10T08:35:14.951Z,9.75
2018-11-10T08:37:44.518Z,9.84
2018-11-10T08:40:15.418Z,9.84
2018-11-10T08:42:44.968Z,9.97
2018-11-10T08:45:15.300Z,9.79
2018-11-10T08:47:45.210Z,10.12
2018-11-10T08:50:16.438Z,10.14
2018-11-10T08:52:45.922Z,10.21
2018-11-10T08:55:15.363Z,10.27
2018-11-10T08:57:44.978Z,10.24
2018-11-10T09:00:14.408Z,10.27
2018-11-10T09:02:43.908Z,10.39
2018-11-10T09:05:13.659Z,10.47
2018-11-10T09:07:43.332Z,10.39
2018-11-10T09:10:15.085Z,10.38
2018-11-10T09:12:44.731Z,10.35
2018-11-10T09:15:15.496Z,10.37
2018-11-10T09:17:45.547Z,10.42
2018-11-10T09:20:16.422Z,10.53
2018-11-10T09:22:46.101Z,10.57
2018-11-10T09:25:17.106Z,10.53
2018-11-10T09:27:46.822Z,10.63
2018-11-10T09:30:18.307Z,10.63
2018-11-10T09:32:47.777Z,10.64
2018-11-10T09:35:17.313Z,10.62
2018-11-10T09:37:46.876Z,10.58
2018-11-10T09:40:17.241Z,10.64
2018-11-10T09:42:46.955Z,10.90
2018-11-10T09:45:17.662Z,10.80
2018-11-10T09:47:47.172Z,10.73
2018-11-10T09:50:19.964Z,10.66
2018-11-10T09:52:49.565Z,10.69
2018-11-10T09:55:19.480Z,10.74
2018-11-10T09:57:49.195Z,10.68
2018-11-10T10:00:21.000Z,10.80
2018-11-10T10:02:51.091Z,10.94
2018-11-10T10:05:20.566Z,10.86
2018-11-10T10:07:50.123Z,11.08
2018-11-10T10:10:19.923Z,11.04
2018-11-10T10:12:49.460Z,11.05
2018-11-10T10:15:19.714Z,11.12
2018-11-10T10:17:49.367Z,11.21
2018-11-10T10:20:20.869Z,11.26
2018-11-10T10:22:51.245Z,11.28
2018-11-10T10:25:21.188Z,11.34
2018-11-10T10:27:51.323Z,11.28
2018-11-10T10:30:23.246Z,11.30
2018-11-10T10:32:52.993Z,11.33
2018-11-10T10:35:22.848Z,11.42
2018-11-10T10:37:52.924Z,11.46
2018-11-10T10:40:23.665Z,11.53
2018-11-10T10:42:53.568Z,11.56
2018-11-10T10:45:24.601Z,11.58
2018-11-10T10:47:54.316Z,11.64
2018-11-10T10:50:24.744Z,11.72
2018-11-10T10:52:54.468Z,11.78
2018-11-10T10:55:24.378Z,11.91
2018-11-10T10:57:54.364Z,11.82
2018-11-10T11:00:29.152Z,11.93
2018-11-10T11:03:02.980Z,12.06
2018-11-10T11:05:37.740Z,12.13
2018-11-10T11:08:07.595Z,12.15
2018-11-10T11:10:37.660Z,12.21
2018-11-10T11:13:07.475Z,12.30
2018-11-10T11:15:37.512Z,12.39
2018-11-10T11:18:07.522Z,12.49
2018-11-10T11:20:37.650Z,12.52
2018-11-10T11:23:07.295Z,12.70
2018-11-10T11:25:36.807Z,12.78
2018-11-10T11:28:06.557Z,12.77
2018-11-10T11:30:36.142Z,12.85
2018-11-10T11:33:06.259Z,12.94
2018-11-10T11:35:35.849Z,12.90
2018-11-10T11:38:05.553Z,12.83
2018-11-10T11:40:35.111Z,12.88
2018-11-10T11:43:05.457Z,12.86
2018-11-10T11:45:35.095Z,12.88
2018-11-10T11:48:04.757Z,12.99
2018-11-10T11:50:34.325Z,12.97
2018-11-10T11:53:04.494Z,12.98
2018-11-10T11:55:34.170Z,13.18
2018-11-10T11:58:03.837Z,13.04
2018-11-10T12:00:33.304Z,13.20
2018-11-10T12:03:02.900Z,13.30
2018-11-10T12:05:32.335Z,13.39
2018-11-10T12:08:01.953Z,13.30
2018-11-10T12:10:31.573Z,13.30
2018-11-10T12:13:01.120Z,13.29
2018-11-10T12:15:30.972Z,13.28
2018-11-10T12:18:00.412Z,13.29
2018-11-10T12:20:29.963Z,13.26
2018-11-10T12:22:59.429Z,13.21
2018-11-10T12:25:29.097Z,13.04
2018-11-10T12:27:58.629Z,12.99
2018-11-10T12:30:28.855Z,12.94
2018-11-10T12:32:58.368Z,12.92
2018-11-10T12:35:27.977Z,12.80
2018-11-10T12:37:57.811Z,12.78
2018-11-10T12:40:27.315Z,12.68
2018-11-10T12:42:56.854Z,12.62
2018-11-10T12:45:26.361Z,12.59
2018-11-10T12:47:57.262Z,12.63
2018-11-10T12:50:26.731Z,12.56
2018-11-10T12:52:56.244Z,12.43
2018-11-10T12:55:25.783Z,12.39
2018-11-10T12:57:56.870Z,12.36
2018-11-10T13:00:26.281Z,12.35
2018-11-10T13:02:55.747Z,12.31
2018-11-10T13:05:25.529Z,12.29
2018-11-10T13:07:56.178Z,12.27
2018-11-10T13:10:25.671Z,12.32
2018-11-10T13:12:55.256Z,12.26
2018-11-10T13:15:24.747Z,12.22
2018-11-10T13:17:56.671Z,12.16
2018-11-10T13:20:26.419Z,12.17
2018-11-10T13:22:55.903Z,12.19
2018-11-10T13:25:25.455Z,12.09
2018-11-10T13:27:55.392Z,12.11
2018-11-10T13:30:24.846Z,12.05
2018-11-10T13:32:54.348Z,12.08
2018-11-10T13:35:23.986Z,11.94
2018-11-10T13:37:53.476Z,11.95
2018-11-10T13:40:22.926Z,11.91
2018-11-10T13:42:52.384Z,11.93
2018-11-10T13:45:22.293Z,11.82
2018-11-10T13:47:51.729Z,11.91
2018-11-10T13:50:21.296Z,11.93
2018-11-10T13:52:51.131Z,11.86
2018-11-10T13:55:20.513Z,11.79
2018-11-10T13:57:49.994Z,11.69
2018-11-10T14:00:19.896Z,11.71
2018-11-10T14:02:49.429Z,11.67
2018-11-10T14:05:18.856Z,11.72
2018-11-10T14:07:48.284Z,11.77
2018-11-10T14:10:17.840Z,11.71
2018-11-10T14:12:47.540Z,11.63
2018-11-10T14:15:17.025Z,11.64
2018-11-10T14:17:46.528Z,11.64
2018-11-10T14:20:16.729Z,11.60
2018-11-10T14:22:46.987Z,11.63
2018-11-10T14:25:17.099Z,11.77
2018-11-10T14:27:46.835Z,11.62
2018-11-10T14:30:17.504Z,11.60
2018-11-10T14:32:47.322Z,11.59
2018-11-10T14:35:16.808Z,11.59
2018-11-10T14:37:46.279Z,11.50
2018-11-10T14:40:17.194Z,11.52
2018-11-10T14:42:49.042Z,11.53
2018-11-10T14:45:19.699Z,11.54
2018-11-10T14:47:49.393Z,11.54
2018-11-10T14:50:19.991Z,11.50
2018-11-10T14:52:49.589Z,11.49
2018-11-10T14:55:18.925Z,11.50
2018-11-10T14:57:50.800Z,11.46
2018-11-10T15:00:21.828Z,11.35
2018-11-10T15:02:51.413Z,11.35
2018-11-10T15:05:21.308Z,11.34
2018-11-10T15:07:50.862Z,11.32
2018-11-10T15:10:20.840Z,11.29
2018-11-10T15:12:50.604Z,11.29
2018-11-10T15:15:20.500Z,11.23
2018-11-10T15:17:50.092Z,11.36
2018-11-10T15:20:20.293Z,11.23
2018-11-10T15:22:49.885Z,11.21
2018-11-10T15:25:20.999Z,11.16
2018-11-10T15:27:50.426Z,11.22
2018-11-10T15:30:21.149Z,11.21
2018-11-10T15:32:51.015Z,11.09
2018-11-10T15:35:21.921Z,11.10
2018-11-10T15:37:52.481Z,11.04
2018-11-10T15:40:22.567Z,11.00
2018-11-10T15:42:52.127Z,10.99
2018-11-10T15:45:22.827Z,11.00
2018-11-10T15:47:53.174Z,11.00
2018-11-10T15:50:22.819Z,10.96
2018-11-10T15:52:52.419Z,10.94
2018-11-10T15:55:22.697Z,10.92
2018-11-10T15:57:55.104Z,10.90
2018-11-10T16:00:25.604Z,10.94
2018-11-10T16:02:55.212Z,10.90
2018-11-10T16:05:25.104Z,10.89
2018-11-10T16:07:57.573Z,10.89
2018-11-10T16:10:27.622Z,10.90
2018-11-10T16:12:57.240Z,10.89
2018-11-10T16:15:27.245Z,10.82
2018-11-10T16:17:58.800Z,10.78
2018-11-10T16:20:29.454Z,10.73
2018-11-10T16:22:59.661Z,10.71
2018-11-10T16:25:36.444Z,10.72
2018-11-10T16:28:06.198Z,10.68
2018-11-10T16:30:36.210Z,10.70
2018-11-10T16:33:06.934Z,10.67
2018-11-10T16:35:37.285Z,10.70
2018-11-10T16:38:07.124Z,10.65
2018-11-10T16:40:36.817Z,10.67
2018-11-10T16:43:06.961Z,10.58
2018-11-10T16:45:36.874Z,10.63
2018-11-10T16:48:08.342Z,10.60
2018-11-10T16:50:38.238Z,10.65
2018-11-10T16:53:07.935Z,10.61
2018-11-10T16:55:37.945Z,10.60
2018-11-10T16:58:08.088Z,10.59
2018-11-10T17:00:38.088Z,10.60
2018-11-10T17:03:07.706Z,10.60
2018-11-10T17:05:37.355Z,10.56
2018-11-10T17:08:07.122Z,10.54
2018-11-10T17:10:36.753Z,10.49
2018-11-10T17:13:07.705Z,10.49
2018-11-10T17:15:40.100Z,10.48
2018-11-10T17:18:09.828Z,10.47
2018-11-10T17:20:40.190Z,10.44
2018-11-10T17:23:11.277Z,10.40
2018-11-10T17:25:41.106Z,10.45
2018-11-10T17:28:11.741Z,10.46
2018-11-10T17:33:51.467Z,10.44
2018-11-10T17:36:21.192Z,10.44
2018-11-10T17:38:51.299Z,10.44
2018-11-10T17:41:21.355Z,10.42
2018-11-10T17:43:53.468Z,10.47
2018-11-10T17:46:23.846Z,10.45
2018-11-10T17:48:53.749Z,10.48
2018-11-10T17:51:23.478Z,10.42
2018-11-10T17:53:53.327Z,10.41
2018-11-10T17:56:23.821Z,10.40
2018-11-10T17:58:54.554Z,10.48
2018-11-10T18:01:24.463Z,10.37
2018-11-10T18:03:54.369Z,10.34
2018-11-10T18:06:24.385Z,10.38
2018-11-10T18:08:54.125Z,10.38
2018-11-10T18:11:24.328Z,10.44
2018-11-10T18:13:54.283Z,10.40
2018-11-10T18:16:24.202Z,10.44
2018-11-10T18:18:54.125Z,10.45
2018-11-10T18:21:24.238Z,9.75
2018-11-10T18:23:54.185Z,10.39
2018-11-10T18:26:24.439Z,10.49
2018-11-10T18:28:54.520Z,10.46
2018-11-10T18:31:24.717Z,9.81
2018-11-10T18:33:55.752Z,10.46
2018-11-10T18:36:30.638Z,10.45
2018-11-10T18:39:05.248Z,10.48
2018-11-10T18:41:42.857Z,10.47
2018-11-10T18:44:12.819Z,10.60
2018-11-10T18:46:42.648Z,10.48
2018-11-10T18:49:24.455Z,10.47
2018-11-10T18:51:54.273Z,10.43
2018-11-10T18:54:30.118Z,10.44
2018-11-10T18:56:59.679Z,10.62
2018-11-10T18:59:29.278Z,10.51
2018-11-10T19:01:58.955Z,10.50
2018-11-10T19:04:28.723Z,10.50
2018-11-10T19:06:58.268Z,10.54
2018-11-10T19:09:27.915Z,10.67
2018-11-10T19:11:57.470Z,10.54
2018-11-10T19:14:27.038Z,10.61
2018-11-10T19:16:58.631Z,10.57
2018-11-10T19:19:28.443Z,10.52
2018-11-10T19:21:58.048Z,10.59
2018-11-10T19:24:27.684Z,10.61
2018-11-10T19:26:57.277Z,10.65
2018-11-10T19:29:27.063Z,10.65
2018-11-10T19:31:56.858Z,10.64
2018-11-10T19:34:26.548Z,10.73
2018-11-10T19:36:56.146Z,10.69
2018-11-10T19:39:25.711Z,10.70
2018-11-10T19:41:55.205Z,10.72
2018-11-10T19:44:24.750Z,10.67
2018-11-10T19:46:54.409Z,10.64
2018-11-10T19:49:23.993Z,10.72
2018-11-10T19:51:53.840Z,10.80
2018-11-10T19:54:23.286Z,10.89
2018-11-10T19:56:52.982Z,10.81
2018-11-10T19:59:22.507Z,10.85
2018-11-10T20:01:52.206Z,10.85
2018-11-10T20:04:21.938Z,10.87
2018-11-10T20:06:51.509Z,10.89
2018-11-10T20:09:21.205Z,10.93
2018-11-10T20:11:50.740Z,10.94
2018-11-10T20:14:20.663Z,10.97
2018-11-10T20:16:50.113Z,11.01
2018-11-10T20:19:19.754Z,11.08
2018-11-10T20:21:49.384Z,11.13
2018-11-10T20:24:19.315Z,11.10
2018-11-10T20:26:48.971Z,11.09
2018-11-10T20:29:18.501Z,11.05
2018-11-10T20:31:48.139Z,11.13
2018-11-10T20:34:17.704Z,11.12
2018-11-10T20:36:47.449Z,11.09
2018-11-10T20:39:17.082Z,11.11
2018-11-10T20:41:46.556Z,11.20
2018-11-10T20:44:16.133Z,11.21
2018-11-10T20:46:45.822Z,11.20
2018-11-10T20:49:15.507Z,11.23
2018-11-10T20:51:45.274Z,11.23
2018-11-10T20:54:14.891Z,11.25
2018-11-10T20:56:44.703Z,11.27
2018-11-10T20:59:14.384Z,11.23
2018-11-10T21:01:43.925Z,11.21
2018-11-10T21:04:13.800Z,11.23
2018-11-10T21:06:43.475Z,11.23
2018-11-10T21:09:14.018Z,11.23
2018-11-10T21:11:43.705Z,11.25
2018-11-10T21:14:13.375Z,11.31
2018-11-10T21:16:43.084Z,11.31
2018-11-10T21:19:12.731Z,11.29
2018-11-10T21:21:42.284Z,11.30
2018-11-10T21:24:11.939Z,11.27
2018-11-10T21:26:41.442Z,11.35
2018-11-10T21:29:11.021Z,11.36
2018-11-10T21:31:40.596Z,11.30
2018-11-10T21:34:10.392Z,11.29
2018-11-10T21:36:39.917Z,11.33
2018-11-10T21:39:11.495Z,11.34
2018-11-10T21:41:41.085Z,11.42
2018-11-10T21:44:10.623Z,11.36
2018-11-10T21:46:40.269Z,11.39
2018-11-10T21:49:09.937Z,11.39
2018-11-10T21:51:39.456Z,11.40
2018-11-10T21:54:09.023Z,11.39
2018-11-10T21:56:38.625Z,11.37
2018-11-10T21:59:08.167Z,11.42
2018-11-10T22:01:37.890Z,11.36
2018-11-10T22:04:07.526Z,11.36
2018-11-10T22:06:37.088Z,11.35
2018-11-10T22:09:10.971Z,11.32
2018-11-10T22:11:41.813Z,11.26
2018-11-10T22:14:11.333Z,11.42
2018-11-10T22:16:40.911Z,11.27
2018-11-10T22:19:10.640Z,11.14
2018-11-10T22:21:40.484Z,11.19
2018-11-10T22:24:09.973Z,11.16
2018-11-10T22:26:39.463Z,11.23
2018-11-10T22:29:09.015Z,11.14
2018-11-10T22:31:38.567Z,11.16
2018-11-10T22:34:08.199Z,11.15
2018-11-10T22:36:37.700Z,11.26
2018-11-10T22:39:12.540Z,11.22
2018-11-10T22:41:42.072Z,11.25
2018-11-10T22:44:11.568Z,11.28
2018-11-10T22:46:41.070Z,11.31
2018-11-10T22:49:10.536Z,11.38
2018-11-10T22:51:40.256Z,11.38
2018-11-10T22:54:09.745Z,11.36
2018-11-10T22:56:39.246Z,11.36
2018-11-10T22:59:08.936Z,11.47
2018-11-10T23:01:38.463Z,11.41
2018-11-10T23:04:08.149Z,11.53
2018-11-10T23:06:37.639Z,11.44
2018-11-10T23:09:09.603Z,11.44
2018-11-10T23:11:39.129Z,11.42
2018-11-10T23:14:08.662Z,11.48
2018-11-10T23:16:38.249Z,11.48
2018-11-10T23:19:07.880Z,11.47
2018-11-10T23:21:37.388Z,11.45
2018-11-10T23:24:06.960Z,11.45
2018-11-10T23:26:36.536Z,11.43
2018-11-10T23:29:06.255Z,11.47
2018-11-10T23:31:35.739Z,11.50
2018-11-10T23:34:05.542Z,11.51
2018-11-10T23:36:35.107Z,11.49
2018-11-10T23:39:07.063Z,11.46
2018-11-10T23:41:36.614Z,11.46
2018-11-10T23:44:06.294Z,11.47
2018-11-10T23:46:35.874Z,11.46
2018-11-10T23:49:05.574Z,11.44
2018-11-10T23:51:35.253Z,11.44
2018-11-10T23:54:04.832Z,11.51
2018-11-10T23:56:34.321Z,11.54
2018-11-10T23:59:03.851Z,11.49
